createdAt,value
2024-03-01T00:00:35.960Z,10.70
2024-03-01T00:03:07.354Z,10.60
2024-03-01T00:05:35.409Z,10.80
2024-03-01T00:08:05.653Z,10.80
2024-03-01T00:10:35.888Z,10.80
2024-03-01T00:13:04.157Z,10.80
2024-03-01T00:15:32.534Z,10.90
2024-03-01T00:18:04.301Z,10.90
2024-03-01T00:20:32.837Z,10.90
2024-03-01T00:23:00.823Z,10.80
2024-03-01T00:25:28.458Z,10.80
2024-03-01T00:27:57.248Z,10.80
2024-03-01T00:30:24.784Z,10.90
2024-03-01T00:32:54.681Z,10.80
2024-03-01T00:35:23.636Z,10.70
2024-03-01T00:37:53.398Z,10.70
2024-03-01T00:40:21.621Z,10.70
2024-03-01T00:42:49.615Z,10.70
2024-03-01T00:45:19.774Z,10.80
2024-03-01T00:47:48.975Z,10.80
2024-03-01T00:50:17.894Z,10.80
2024-03-01T00:52:47.955Z,10.70
2024-03-01T00:55:15.916Z,10.70
2024-03-01T00:57:45.730Z,10.70
2024-03-01T01:00:14.553Z,10.80
2024-03-01T01:02:46.726Z,10.80
2024-03-01T01:05:14.357Z,10.80
2024-03-01T01:07:41.915Z,10.70
2024-03-01T01:10:10.466Z,10.70
2024-03-01T01:12:39.190Z,10.70
2024-03-01T01:15:09.565Z,10.70
2024-03-01T01:17:38.346Z,10.60
2024-03-01T01:20:07.436Z,10.60
2024-03-01T01:22:35.440Z,10.60
2024-03-01T01:25:03.658Z,10.60
2024-03-01T01:27:34.314Z,10.60
2024-03-01T01:30:04.406Z,10.60
2024-03-01T01:32:31.941Z,10.60
2024-03-01T01:34:59.382Z,10.70
2024-03-01T01:37:27.124Z,10.70
2024-03-01T01:39:55.189Z,10.80
2024-03-01T01:42:25.104Z,10.80
2024-03-01T01:44:53.870Z,10.80
2024-03-01T01:47:21.342Z,10.90
2024-03-01T01:49:49.101Z,11.00
2024-03-01T01:52:17.942Z,11.00
2024-03-01T01:54:48.295Z,11.00
2024-03-01T01:57:16.219Z,10.90
2024-03-01T01:59:48.064Z,10.90
2024-03-01T02:02:17.977Z,10.80
2024-03-01T02:04:48.181Z,10.80
2024-03-01T02:07:16.091Z,10.30
2024-03-01T02:09:47.936Z,10.00
2024-03-01T02:12:19.603Z,9.70
2024-03-01T02:14:48.217Z,9.40
2024-03-01T02:17:18.503Z,9.30
2024-03-01T02:19:46.790Z,9.20
2024-03-01T02:22:19.803Z,9.30
2024-03-01T02:24:50.617Z,9.20
2024-03-01T02:27:20.667Z,9.30
2024-03-01T02:29:48.354Z,9.30
2024-03-01T02:32:18.170Z,9.20
2024-03-01T02:34:45.736Z,9.00
2024-03-01T02:37:14.586Z,9.00
2024-03-01T02:39:42.636Z,9.00
2024-03-01T02:42:10.068Z,9.00
2024-03-01T02:44:39.558Z,9.00
2024-03-01T02:47:07.252Z,8.90
2024-03-01T02:49:39.671Z,8.70
2024-03-01T02:52:11.945Z,8.70
2024-03-01T02:54:39.454Z,8.70
2024-03-01T02:57:11.629Z,8.70
2024-03-01T02:59:42.092Z,8.60
2024-03-01T03:02:09.735Z,8.60
2024-03-01T03:04:40.175Z,8.50
2024-03-01T03:07:11.504Z,8.50
2024-03-01T03:09:46.002Z,8.40
2024-03-01T03:12:15.641Z,8.50
2024-03-01T03:14:45.249Z,8.30
2024-03-01T03:17:13.355Z,8.30
2024-03-01T03:19:40.846Z,8.30
2024-03-01T03:22:11.186Z,8.30
2024-03-01T03:24:41.903Z,8.20
2024-03-01T03:27:12.458Z,8.10
2024-03-01T03:29:40.305Z,8.00
2024-03-01T03:32:08.291Z,8.10
2024-03-01T03:34:36.209Z,8.10
2024-03-01T03:37:04.029Z,8.10
2024-03-01T03:39:33.752Z,8.00
2024-03-01T03:42:04.007Z,7.80
2024-03-01T03:44:31.771Z,7.80
2024-03-01T03:47:03.317Z,7.80
2024-03-01T03:49:32.998Z,7.80
2024-03-01T03:52:00.686Z,7.90
2024-03-01T03:54:32.871Z,8.00
2024-03-01T03:57:00.473Z,7.90
2024-03-01T03:59:32.804Z,7.90
2024-03-01T04:02:00.449Z,7.90
2024-03-01T04:04:28.111Z,7.90
2024-03-01T04:06:56.170Z,7.90
2024-03-01T04:09:26.048Z,7.90
2024-03-01T04:11:58.625Z,7.90
2024-03-01T04:14:28.817Z,7.70
2024-03-01T04:16:58.754Z,7.70
2024-03-01T04:19:28.667Z,7.70
2024-03-01T04:22:01.306Z,7.80
2024-03-01T04:24:38.966Z,7.80
2024-03-01T04:27:08.548Z,7.70
2024-03-01T04:29:38.374Z,7.70
2024-03-01T04:32:09.873Z,7.60
2024-03-01T04:34:38.280Z,7.50
2024-03-01T04:37:08.518Z,7.50
2024-03-01T04:39:35.954Z,7.50
2024-03-01T04:42:06.946Z,7.50
2024-03-01T04:44:34.491Z,7.40
2024-03-01T04:47:02.531Z,7.20
2024-03-01T04:49:32.005Z,7.20
2024-03-01T04:52:04.744Z,7.10
2024-03-01T04:54:37.395Z,7.10
2024-03-01T04:57:07.471Z,7.00
2024-03-01T04:59:43.179Z,6.90
2024-03-01T05:02:13.204Z,6.80
2024-03-01T05:04:44.755Z,6.80
2024-03-01T05:07:12.734Z,6.70
2024-03-01T05:09:40.255Z,6.70
2024-03-01T05:12:14.832Z,6.80
2024-03-01T05:14:42.621Z,6.80
2024-03-01T05:17:10.302Z,6.70
2024-03-01T05:19:40.334Z,6.70
2024-03-01T05:22:14.563Z,6.70
2024-03-01T05:24:44.524Z,6.70
2024-03-01T05:27:17.094Z,6.70
2024-03-01T05:29:44.894Z,6.60
2024-03-01T05:32:13.554Z,6.50
2024-03-01T05:34:41.149Z,6.50
2024-03-01T05:37:11.087Z,6.40
2024-03-01T05:39:39.614Z,6.50
2024-03-01T05:42:08.017Z,6.60
2024-03-01T05:44:37.855Z,6.60
2024-03-01T05:47:05.562Z,6.60
2024-03-01T05:49:33.004Z,6.60
2024-03-01T05:52:01.035Z,6.70
2024-03-01T05:54:30.875Z,6.80
2024-03-01T05:56:58.410Z,6.70
2024-03-01T05:59:26.173Z,6.50
2024-03-01T06:01:55.630Z,6.40
2024-03-01T06:04:23.228Z,6.30
2024-03-01T06:06:56.134Z,6.20
2024-03-01T06:09:23.775Z,6.20
2024-03-01T06:11:51.648Z,6.20
2024-03-01T06:14:21.409Z,5.90
2024-03-01T06:16:49.072Z,5.70
2024-03-01T06:19:16.874Z,5.60
2024-03-01T06:21:44.796Z,5.50
2024-03-01T06:24:12.791Z,5.40
2024-03-01T06:26:40.498Z,5.30
2024-03-01T06:29:10.403Z,5.40
2024-03-01T06:31:38.289Z,5.40
2024-03-01T06:34:06.110Z,5.40
2024-03-01T06:36:35.101Z,5.30
2024-03-01T06:39:02.935Z,5.40
2024-03-01T06:41:33.075Z,5.40
2024-03-01T06:44:00.661Z,5.30
2024-03-01T06:46:28.843Z,5.40
2024-03-01T06:48:57.071Z,5.50
2024-03-01T06:51:24.534Z,5.60
2024-03-01T06:53:54.541Z,5.60
2024-03-01T06:56:24.621Z,5.60
2024-03-01T06:58:54.847Z,5.70
2024-03-01T07:01:23.635Z,5.70
2024-03-01T07:03:56.703Z,5.70
2024-03-01T07:06:24.270Z,5.60
2024-03-01T07:08:52.305Z,5.70
2024-03-01T07:11:19.931Z,5.80
2024-03-01T07:13:47.986Z,5.90
2024-03-01T07:16:15.971Z,6.00
2024-03-01T07:18:43.625Z,6.20
2024-03-01T07:21:11.190Z,6.40
2024-03-01T07:23:38.655Z,6.60
2024-03-01T07:26:07.589Z,6.60
2024-03-01T07:28:37.520Z,6.60
2024-03-01T07:31:06.164Z,6.60
2024-03-01T07:33:33.740Z,6.70
2024-03-01T07:36:01.541Z,7.00
2024-03-01T07:38:30.044Z,7.10
2024-03-01T07:41:00.440Z,7.10
2024-03-01T07:43:30.306Z,7.30
2024-03-01T07:45:58.171Z,7.30
2024-03-01T07:48:26.501Z,7.20
2024-03-01T07:50:53.958Z,7.30
2024-03-01T07:53:21.429Z,7.30
2024-03-01T07:55:51.332Z,7.40
2024-03-01T07:58:19.931Z,7.40
2024-03-01T08:00:47.631Z,7.50
2024-03-01T08:03:15.512Z,7.60
2024-03-01T08:05:43.139Z,7.80
2024-03-01T08:08:12.102Z,7.90
2024-03-01T08:10:44.391Z,7.90
2024-03-01T08:13:14.508Z,8.10
2024-03-01T08:15:42.421Z,8.20
2024-03-01T08:18:23.360Z,8.30
2024-03-01T08:21:00.309Z,8.30
2024-03-01T08:23:29.737Z,8.80
2024-03-01T08:26:02.183Z,9.60
2024-03-01T08:28:32.802Z,10.30
2024-03-01T08:31:06.738Z,12.20
2024-03-01T08:33:41.745Z,14.00
2024-03-01T08:36:15.401Z,14.60
2024-03-01T08:38:44.927Z,14.00
2024-03-01T08:41:15.853Z,13.50
2024-03-01T08:43:44.767Z,13.20
2024-03-01T08:46:38.942Z,13.70
2024-03-01T08:49:32.506Z,16.30
2024-03-01T08:52:00.768Z,18.20
2024-03-01T08:54:28.562Z,18.70
2024-03-01T08:57:07.268Z,18.90
2024-03-01T08:59:47.760Z,18.00
2024-03-01T09:02:48.298Z,17.70
2024-03-01T09:05:19.537Z,19.10
2024-03-01T09:07:47.043Z,20.20
2024-03-01T09:10:30.081Z,20.20
2024-03-01T09:13:00.452Z,19.20
2024-03-01T09:15:39.912Z,19.10
2024-03-01T09:18:35.924Z,18.50
2024-03-01T09:21:04.797Z,18.60
2024-03-01T09:23:33.586Z,18.80
2024-03-01T09:26:12.308Z,18.50
2024-03-01T09:28:42.238Z,18.90
2024-03-01T09:31:22.459Z,19.10
2024-03-01T09:33:54.628Z,17.10
2024-03-01T09:36:24.648Z,15.50
2024-03-01T09:38:59.823Z,15.00
2024-03-01T09:42:14.656Z,16.40
2024-03-01T09:45:02.497Z,18.30
2024-03-01T09:47:36.380Z,18.90
2024-03-01T09:50:52.017Z,19.60
2024-03-01T09:53:19.804Z,18.70
2024-03-01T09:56:26.465Z,18.80
2024-03-01T09:59:09.803Z,19.90
2024-03-01T10:01:40.042Z,20.30
2024-03-01T10:04:25.775Z,20.20
2024-03-01T10:07:31.588Z,20.30
2024-03-01T10:10:30.751Z,21.10
2024-03-01T10:13:04.742Z,20.60
2024-03-01T10:15:55.946Z,20.70
2024-03-01T10:18:41.916Z,20.80
2024-03-01T10:21:21.164Z,20.90
2024-03-01T10:24:13.318Z,20.80
2024-03-01T10:26:46.169Z,19.80
2024-03-01T10:29:35.882Z,20.10
2024-03-01T10:32:30.070Z,20.40
2024-03-01T10:34:57.460Z,20.10
2024-03-01T10:37:42.459Z,20.60
2024-03-01T10:40:23.761Z,20.40
2024-03-01T10:43:03.760Z,20.60
2024-03-01T10:45:50.623Z,21.30
2024-03-01T10:48:18.218Z,20.90
2024-03-01T10:50:56.927Z,21.10
2024-03-01T10:53:34.977Z,21.60
2024-03-01T10:56:07.741Z,22.30
2024-03-01T10:58:58.881Z,22.20
2024-03-01T11:01:41.895Z,21.70
2024-03-01T11:04:21.917Z,20.60
2024-03-01T11:06:55.287Z,19.50
2024-03-01T11:09:23.161Z,18.50
2024-03-01T11:12:17.808Z,17.00
2024-03-01T11:14:56.935Z,16.50
2024-03-01T11:17:28.489Z,17.30
2024-03-01T11:20:05.448Z,19.20
2024-03-01T11:22:34.427Z,19.30
2024-03-01T11:25:11.373Z,17.30
2024-03-01T11:27:47.921Z,15.30
2024-03-01T11:30:24.537Z,14.10
2024-03-01T11:33:03.347Z,13.40
2024-03-01T11:35:46.096Z,12.90
2024-03-01T11:38:35.993Z,12.70
2024-03-01T11:41:15.983Z,13.00
2024-03-01T11:44:26.829Z,13.00
2024-03-01T11:47:10.375Z,13.10
2024-03-01T11:49:41.138Z,13.10
2024-03-01T11:52:29.997Z,13.20
2024-03-01T11:55:16.331Z,13.40
2024-03-01T11:58:17.028Z,13.20
2024-03-01T12:00:47.325Z,12.80
2024-03-01T12:03:54.487Z,12.40
2024-03-01T12:06:59.766Z,12.30
2024-03-01T12:09:50.641Z,12.00
2024-03-01T12:12:32.814Z,11.60
2024-03-01T12:15:05.898Z,11.60
2024-03-01T12:18:00.326Z,11.30
2024-03-01T12:20:32.185Z,11.30
2024-03-01T12:23:32.605Z,11.30
2024-03-01T12:26:01.658Z,11.60
2024-03-01T12:28:44.520Z,11.90
2024-03-01T12:31:27.501Z,12.00
2024-03-01T12:34:14.401Z,12.20
2024-03-01T12:36:50.586Z,12.60
2024-03-01T12:39:21.713Z,12.70
2024-03-01T12:42:07.104Z,12.70
2024-03-01T12:44:40.750Z,12.60
2024-03-01T12:47:17.374Z,12.70
2024-03-01T12:50:10.793Z,12.60
2024-03-01T12:52:41.189Z,12.70
2024-03-01T12:55:09.913Z,12.80
2024-03-01T12:57:50.555Z,12.50
2024-03-01T13:00:26.921Z,12.50
2024-03-01T13:02:59.693Z,12.50
2024-03-01T13:05:41.993Z,12.20
2024-03-01T13:08:27.846Z,11.90
2024-03-01T13:10:58.926Z,11.80
2024-03-01T13:13:29.236Z,11.60
2024-03-01T13:16:12.422Z,11.60
2024-03-01T13:19:05.982Z,12.00
2024-03-01T13:21:51.849Z,12.20
2024-03-01T13:24:41.260Z,12.50
2024-03-01T13:27:12.060Z,12.60
2024-03-01T13:29:44.188Z,12.50
2024-03-01T13:32:39.082Z,12.40
2024-03-01T13:35:17.051Z,12.30
2024-03-01T13:38:09.617Z,12.20
2024-03-01T13:40:52.382Z,12.10
2024-03-01T13:43:24.898Z,12.10
2024-03-01T13:46:16.952Z,12.10
2024-03-01T13:48:51.994Z,12.00
2024-03-01T13:51:20.098Z,11.80
2024-03-01T13:53:47.969Z,11.50
2024-03-01T13:56:23.488Z,11.70
2024-03-01T13:58:51.438Z,11.60
2024-03-01T14:01:22.517Z,11.50
2024-03-01T14:03:58.490Z,11.40
2024-03-01T14:06:29.668Z,11.40
2024-03-01T14:09:15.167Z,11.30
2024-03-01T14:11:46.763Z,11.30
2024-03-01T14:14:16.340Z,11.20
2024-03-01T14:16:47.354Z,11.30
2024-03-01T14:19:16.372Z,11.20
2024-03-01T14:21:44.633Z,11.10
2024-03-01T14:24:12.302Z,11.10
2024-03-01T14:26:40.437Z,11.00
2024-03-01T14:29:08.774Z,11.00
2024-03-01T14:31:40.502Z,10.90
2024-03-01T14:34:08.445Z,10.90
2024-03-01T14:36:45.467Z,11.00
2024-03-01T14:39:14.142Z,11.10
2024-03-01T14:41:42.738Z,11.20
2024-03-01T14:44:10.992Z,11.10
2024-03-01T14:46:40.015Z,11.10
2024-03-01T14:49:19.097Z,11.10
2024-03-01T14:51:49.327Z,11.10
2024-03-01T14:54:31.157Z,11.10
2024-03-01T14:57:01.997Z,11.10
2024-03-01T14:59:30.242Z,11.10
2024-03-01T15:01:58.397Z,11.10
2024-03-01T15:04:28.705Z,11.10
2024-03-01T15:06:57.569Z,11.00
2024-03-01T15:09:25.763Z,11.00
2024-03-01T15:11:53.918Z,11.00
2024-03-01T15:14:25.527Z,11.10
2024-03-01T15:16:53.722Z,11.30
2024-03-01T15:19:21.985Z,11.40
2024-03-01T15:21:51.124Z,11.60
2024-03-01T15:24:19.983Z,11.60
2024-03-01T15:26:49.360Z,11.50
2024-03-01T15:29:20.366Z,11.40
2024-03-01T15:31:49.332Z,11.40
2024-03-01T15:34:19.572Z,11.30
2024-03-01T15:36:50.683Z,11.20
2024-03-01T15:39:18.496Z,11.30
2024-03-01T15:41:45.996Z,11.30
2024-03-01T15:44:17.968Z,11.10
2024-03-01T15:46:47.985Z,11.10
2024-03-01T15:49:16.094Z,11.10
2024-03-01T15:51:43.615Z,11.20
2024-03-01T15:54:11.108Z,11.20
2024-03-01T15:56:38.824Z,11.00
2024-03-01T15:59:10.585Z,11.00
2024-03-01T16:01:42.171Z,11.00
2024-03-01T16:04:12.805Z,11.00
2024-03-01T16:06:42.093Z,11.00
2024-03-01T16:09:10.537Z,10.90
2024-03-01T16:11:43.643Z,11.00
2024-03-01T16:14:13.662Z,11.00
2024-03-01T16:16:46.978Z,11.00
2024-03-01T16:19:14.404Z,11.00
2024-03-01T16:21:41.817Z,10.80
2024-03-01T16:24:14.457Z,10.70
2024-03-01T16:26:42.143Z,10.60
2024-03-01T16:29:13.681Z,10.50
2024-03-01T16:31:43.075Z,10.50
2024-03-01T16:34:15.242Z,10.50
2024-03-01T16:36:45.677Z,10.50
2024-03-01T16:39:35.750Z,10.60
2024-03-01T16:42:06.301Z,10.60
2024-03-01T16:44:42.348Z,10.50
2024-03-01T16:47:14.093Z,10.40
2024-03-01T16:49:46.285Z,10.40
2024-03-01T16:52:21.172Z,10.40
2024-03-01T16:54:51.507Z,10.50
2024-03-01T16:57:32.484Z,10.50
2024-03-01T17:00:01.579Z,10.40
2024-03-01T17:02:33.610Z,10.40
2024-03-01T17:05:02.803Z,10.30
2024-03-01T17:07:43.110Z,10.20
2024-03-01T17:10:23.214Z,10.10
2024-03-01T17:12:56.062Z,10.10
2024-03-01T17:15:23.640Z,10.00
2024-03-01T17:17:51.611Z,9.90
2024-03-01T17:20:22.920Z,9.80
2024-03-01T17:22:54.136Z,9.90
2024-03-01T17:25:23.350Z,9.80
2024-03-01T17:27:50.813Z,9.80
2024-03-01T17:30:18.462Z,9.60
2024-03-01T17:32:50.504Z,9.60
2024-03-01T17:35:22.285Z,9.50
2024-03-01T17:37:50.548Z,9.40
2024-03-01T17:40:18.831Z,9.40
2024-03-01T17:42:47.812Z,9.50
2024-03-01T17:45:18.371Z,9.60
2024-03-01T17:47:47.014Z,9.60
2024-03-01T17:50:15.496Z,9.60
2024-03-01T17:52:42.937Z,9.70
2024-03-01T17:55:15.563Z,9.70
2024-03-01T17:57:46.039Z,9.70
2024-03-01T18:00:14.729Z,9.70
2024-03-01T18:02:42.330Z,9.70
2024-03-01T18:05:11.907Z,9.70
2024-03-01T18:07:40.917Z,9.70
2024-03-01T18:10:10.027Z,9.60
2024-03-01T18:12:37.576Z,9.70
2024-03-01T18:15:06.056Z,9.80
2024-03-01T18:17:34.233Z,9.80
2024-03-01T18:20:01.730Z,9.80
2024-03-01T18:22:29.616Z,9.80
2024-03-01T18:24:57.541Z,9.90
2024-03-01T18:27:25.591Z,9.90
2024-03-01T18:29:53.788Z,9.90
2024-03-01T18:32:21.618Z,9.90
2024-03-01T18:34:49.013Z,9.90
2024-03-01T18:37:16.712Z,10.00
2024-03-01T18:39:44.692Z,9.90
2024-03-01T18:42:14.640Z,10.00
2024-03-01T18:44:42.125Z,9.90
2024-03-01T18:47:09.637Z,9.90
2024-03-01T18:49:41.893Z,9.90
2024-03-01T18:52:12.709Z,9.90
2024-03-01T18:54:40.138Z,9.90
2024-03-01T18:57:08.112Z,9.90
2024-03-01T18:59:38.287Z,9.90
2024-03-01T19:02:06.806Z,9.90
2024-03-01T19:04:35.462Z,9.90
2024-03-01T19:07:04.116Z,10.00
2024-03-01T19:09:34.508Z,9.90
2024-03-01T19:12:04.565Z,9.90
2024-03-01T19:14:32.088Z,10.00
2024-03-01T19:17:01.970Z,9.90
2024-03-01T19:19:29.505Z,9.90
2024-03-01T19:21:56.968Z,9.80
2024-03-01T19:24:29.547Z,9.70
2024-03-01T19:27:00.542Z,9.70
2024-03-01T19:29:28.211Z,9.60
2024-03-01T19:31:58.249Z,9.60
2024-03-01T19:34:34.254Z,9.50
2024-03-01T19:37:01.977Z,9.60
2024-03-01T19:39:30.962Z,9.60
2024-03-01T19:41:59.320Z,9.50
2024-03-01T19:44:29.820Z,9.50
2024-03-01T19:47:00.398Z,9.50
2024-03-01T19:49:33.741Z,9.50
2024-03-01T19:52:01.252Z,9.60
2024-03-01T19:54:28.664Z,9.60
2024-03-01T19:56:56.777Z,9.60
2024-03-01T19:59:24.490Z,9.50
2024-03-01T20:01:55.396Z,9.50
2024-03-01T20:04:26.111Z,9.50
2024-03-01T20:06:53.582Z,9.50
2024-03-01T20:09:21.540Z,9.50
2024-03-01T20:11:55.880Z,9.50
2024-03-01T20:14:28.071Z,9.40
2024-03-01T20:16:56.911Z,9.40
2024-03-01T20:19:24.613Z,9.40
2024-03-01T20:21:52.109Z,9.40
2024-03-01T20:24:22.756Z,9.30
2024-03-01T20:26:50.329Z,9.30
2024-03-01T20:29:21.017Z,9.50
2024-03-01T20:31:50.995Z,9.40
2024-03-01T20:34:19.746Z,9.40
2024-03-01T20:36:47.522Z,9.40
2024-03-01T20:39:15.025Z,9.50
2024-03-01T20:41:42.938Z,9.60
2024-03-01T20:44:13.565Z,9.60
2024-03-01T20:46:43.717Z,9.70
2024-03-01T20:49:11.459Z,9.70
2024-03-01T20:51:38.940Z,9.70
2024-03-01T20:54:11.718Z,9.60
2024-03-01T20:56:39.289Z,9.50
2024-03-01T20:59:08.885Z,9.60
2024-03-01T21:01:39.290Z,9.70
2024-03-01T21:04:07.783Z,9.70
2024-03-01T21:06:35.649Z,9.70
2024-03-01T21:09:05.105Z,9.70
2024-03-01T21:11:32.904Z,9.80
2024-03-01T21:14:00.444Z,9.80
2024-03-01T21:16:30.451Z,9.80
2024-03-01T21:19:00.713Z,9.80
2024-03-01T21:21:28.333Z,10.00
2024-03-01T21:23:56.054Z,10.00
2024-03-01T21:26:24.277Z,10.10
2024-03-01T21:28:52.571Z,10.10
2024-03-01T21:31:20.671Z,10.20
2024-03-01T21:33:48.823Z,10.20
2024-03-01T21:36:16.999Z,10.20
2024-03-01T21:38:44.509Z,10.20
2024-03-01T21:41:11.956Z,10.20
2024-03-01T21:43:39.782Z,10.30
2024-03-01T21:46:07.996Z,10.30
2024-03-01T21:48:36.173Z,10.30
2024-03-01T21:51:06.780Z,10.30
2024-03-01T21:53:34.509Z,10.30
2024-03-01T21:56:04.556Z,10.30
2024-03-01T21:58:33.381Z,10.30
2024-03-01T22:01:03.947Z,10.30
2024-03-01T22:03:37.358Z,10.40
2024-03-01T22:06:08.322Z,10.40
2024-03-01T22:08:36.063Z,10.50
2024-03-01T22:11:04.021Z,10.50
2024-03-01T22:13:33.954Z,10.50
2024-03-01T22:16:01.512Z,10.60
2024-03-01T22:18:29.019Z,10.60
2024-03-01T22:20:56.665Z,10.60
2024-03-01T22:23:26.422Z,10.60
2024-03-01T22:25:56.580Z,10.50
2024-03-01T22:28:24.335Z,10.20
2024-03-01T22:30:52.185Z,9.80
2024-03-01T22:33:20.094Z,9.50
2024-03-01T22:35:48.528Z,9.40
2024-03-01T22:38:16.841Z,9.30
2024-03-01T22:40:45.869Z,9.40
2024-03-01T22:43:13.969Z,9.00
2024-03-01T22:45:41.966Z,8.60
2024-03-01T22:48:11.784Z,8.30
2024-03-01T22:50:40.576Z,8.00
2024-03-01T22:53:16.302Z,8.00
2024-03-01T22:55:45.590Z,7.80
2024-03-01T22:58:14.062Z,7.60
2024-03-01T23:00:47.725Z,7.50
2024-03-01T23:03:46.384Z,7.40
2024-03-01T23:06:17.890Z,7.40
2024-03-01T23:08:53.832Z,7.50
2024-03-01T23:11:24.675Z,7.60
2024-03-01T23:13:52.620Z,7.50
2024-03-01T23:16:22.783Z,7.40
2024-03-01T23:18:50.894Z,7.40
2024-03-01T23:21:21.019Z,7.50
2024-03-01T23:23:48.826Z,7.40
2024-03-01T23:26:17.744Z,7.40
2024-03-01T23:28:47.565Z,7.30
2024-03-01T23:31:19.094Z,7.30
2024-03-01T23:33:47.686Z,7.20
2024-03-01T23:36:17.945Z,7.20
2024-03-01T23:38:45.820Z,7.20
2024-03-01T23:41:14.485Z,7.30
2024-03-01T23:43:42.037Z,7.40
2024-03-01T23:46:09.454Z,7.40
2024-03-01T23:48:39.432Z,7.50
2024-03-01T23:51:07.871Z,7.60
2024-03-01T23:53:39.546Z,7.50
2024-03-01T23:56:08.861Z,7.40
2024-03-01T23:58:42.588Z,7.50
